Time;durP1;ratioP1;P1;durP2;ratioP2;P2;SDS_P1;SDS_P2;PMS_P1;PMS_P2;Temp;Humidity;BMP_temperature;BMP_pressure;BME280_temperature;BME280_humidity;BME280_pressure;Samples;Min_cycle;Max_cycle;Signal;HPM_P1;HPM_P2
2022/10/26 00:00:27;;;;;;;41.28;8.35;;;;;;;16.18;100.00;98014.28;5014313;28;20041;-59
2022/10/26 00:02:54;;;;;;;44.80;8.40;;;;;;;16.60;100.00;98014.22;5019590;28;20017;-57
2022/10/26 00:05:20;;;;;;;58.83;9.23;;;;;;;16.42;100.00;98016.28;5015539;28;20056;-57
2022/10/26 00:07:46;;;;;;;34.55;6.82;;;;;;;16.32;100.00;98016.88;5019875;28;20017;-57
2022/10/26 00:10:11;;;;;;;39.75;7.90;;;;;;;15.92;100.00;98013.31;5018851;28;20036;-57
2022/10/26 00:12:37;;;;;;;47.20;8.25;;;;;;;16.34;100.00;98014.16;5021474;28;20017;-57
2022/10/26 00:15:02;;;;;;;36.72;7.35;;;;;;;16.15;100.00;98014.47;5021324;28;20033;-56
2022/10/26 00:17:28;;;;;;;40.35;8.43;;;;;;;16.23;100.00;98006.94;5013628;28;20045;-57
2022/10/26 00:19:53;;;;;;;37.20;7.38;;;;;;;16.23;100.00;98006.94;5017061;28;20029;-58
2022/10/26 00:22:19;;;;;;;47.13;8.60;;;;;;;16.09;100.00;98004.34;5017484;28;20049;-58
2022/10/26 00:24:44;;;;;;;51.63;8.63;;;;;;;16.43;100.00;98004.78;5021607;28;20033;-59
2022/10/26 00:27:09;;;;;;;50.17;8.85;;;;;;;16.51;100.00;98005.16;5020533;28;20041;-57
2022/10/26 00:29:35;;;;;;;43.50;7.93;;;;;;;16.39;100.00;98001.50;5022189;28;20024;-56
2022/10/26 00:32:00;;;;;;;32.72;6.88;;;;;;;16.28;100.00;98004.84;5019862;28;20042;-57
2022/10/26 00:34:25;;;;;;;37.20;7.50;;;;;;;16.48;100.00;98005.34;5014962;28;20038;-57
2022/10/26 00:36:51;;;;;;;61.67;9.30;;;;;;;16.51;100.00;98006.00;5013993;28;20077;-58
2022/10/26 00:39:16;;;;;;;36.92;7.15;;;;;;;16.45;100.00;98000.28;5019489;28;20060;-58
2022/10/26 00:41:41;;;;;;;44.60;7.72;;;;;;;16.58;100.00;98009.09;5017764;28;20049;-57
2022/10/26 00:44:42;;;;;;;42.95;7.47;;;;;;;16.44;100.00;98007.34;5016587;28;20112;-59
2022/10/26 00:47:12;;;;;;;48.47;9.13;;;;;;;16.61;100.00;98011.50;4940079;28;20453;-57
2022/10/26 00:49:37;;;;;;;36.90;7.15;;;;;;;16.47;100.00;98001.00;5006463;28;20048;-57
2022/10/26 00:52:03;;;;;;;41.78;7.70;;;;;;;16.00;100.00;98013.66;5018244;28;20037;-59
2022/10/26 00:54:28;;;;;;;37.15;7.20;;;;;;;15.64;100.00;98006.22;5020942;28;20029;-58
2022/10/26 00:56:54;;;;;;;50.88;7.88;;;;;;;16.48;100.00;98005.34;5014843;28;20120;-57
2022/10/26 00:59:21;;;;;;;38.78;7.40;;;;;;;16.58;100.00;97995.91;5016570;28;20021;-57
2022/10/26 01:01:48;;;;;;;38.92;7.05;;;;;;;16.82;100.00;98003.13;5020940;28;20037;-58
2022/10/26 01:04:14;;;;;;;38.10;7.10;;;;;;;16.62;100.00;97997.41;5016791;28;20147;-58
2022/10/26 01:06:41;;;;;;;40.72;7.13;;;;;;;17.10;100.00;97991.63;5014511;28;20069;-57
2022/10/26 01:09:08;;;;;;;38.88;7.43;;;;;;;17.13;100.00;97992.25;5017862;28;20591;-58
2022/10/26 01:11:33;;;;;;;45.00;8.00;;;;;;;17.30;100.00;97988.47;5019076;28;20453;-58
2022/10/26 01:14:00;;;;;;;31.02;6.47;;;;;;;16.75;100.00;97971.09;5016097;28;20030;-59
2022/10/26 01:16:41;;;;;;;30.23;6.28;;;;;;;17.05;100.00;97980.53;5008890;28;20033;-57
2022/10/26 01:19:22;;;;;;;40.10;7.60;;;;;;;16.98;100.00;97971.38;5014368;28;20029;-57
2022/10/26 01:22:02;;;;;;;39.05;6.90;;;;;;;17.07;100.00;97965.47;5014313;28;20518;-57
2022/10/26 01:24:43;;;;;;;41.58;6.95;;;;;;;17.66;100.00;97963.13;5021308;28;20026;-59
2022/10/26 01:27:21;;;;;;;56.08;8.23;;;;;;;17.33;100.00;97966.31;5018274;28;20047;-59
2022/10/26 01:30:11;;;;;;;45.28;7.43;;;;;;;17.51;100.00;97970.31;5018789;28;20029;-60
2022/10/26 01:33:09;;;;;;;32.85;6.50;;;;;;;17.60;100.00;97957.44;5013036;28;20100;-57
2022/10/26 01:35:38;;;;;;;42.03;7.30;;;;;;;17.40;100.00;97957.03;5014141;28;20629;-57
2022/10/26 01:38:10;;;;;;;36.70;6.93;;;;;;;16.99;100.00;97965.16;5021510;28;20395;-58
2022/10/26 01:40:35;;;;;;;44.90;8.00;;;;;;;17.83;100.00;97967.22;5016441;28;20046;-60
2022/10/26 01:43:06;;;;;;;34.25;6.50;;;;;;;17.60;100.00;97968.81;5013495;28;20084;-58
2022/10/26 01:45:33;;;;;;;43.05;7.57;;;;;;;17.36;100.00;97963.47;5020383;28;20041;-58
2022/10/26 01:48:01;;;;;;;34.00;6.30;;;;;;;16.79;100.00;97958.56;5017572;28;20104;-58
2022/10/26 01:50:28;;;;;;;35.33;6.07;;;;;;;17.63;100.00;97962.50;5016421;28;20045;-59
2022/10/26 01:52:53;;;;;;;33.97;5.93;;;;;;;17.54;100.00;97962.19;5018699;28;20119;-59
2022/10/26 01:55:40;;;;;;;46.58;6.88;;;;;;;17.64;100.00;97961.53;5018677;28;20035;-59
2022/10/26 01:58:20;;;;;;;38.85;6.90;;;;;;;18.23;100.00;97958.22;5019334;28;20917;-56
2022/10/26 02:01:02;;;;;;;45.90;7.13;;;;;;;18.23;100.00;97959.09;5016130;28;20038;-57
2022/10/26 02:03:53;;;;;;;37.95;6.18;;;;;;;18.33;100.00;97967.19;5012975;28;20075;-57
2022/10/26 02:06:35;;;;;;;32.65;5.45;;;;;;;16.86;100.00;97954.59;5012973;28;20100;-59
2022/10/26 02:09:19;;;;;;;36.80;6.55;;;;;;;17.32;100.00;97948.81;5017360;28;20029;-57
2022/10/26 02:11:48;;;;;;;40.28;6.72;;;;;;;17.90;100.00;97955.31;5011406;28;20544;-57
2022/10/26 02:14:31;;;;;;;35.67;6.50;;;;;;;18.12;100.00;97959.00;5014007;28;20034;-58
2022/10/26 02:17:05;;;;;;;41.25;7.05;;;;;;;17.79;100.00;97960.47;5021572;28;20041;-59
2022/10/26 02:19:37;;;;;;;35.47;6.40;;;;;;;17.76;100.00;97980.94;5016269;28;20037;-59
2022/10/26 02:22:18;;;;;;;41.30;7.22;;;;;;;17.78;100.00;97984.31;5015617;28;20813;-57
2022/10/26 02:24:45;;;;;;;40.88;6.55;;;;;;;17.71;100.00;97975.97;5018961;28;20020;-60
2022/10/26 02:27:19;;;;;;;40.42;6.78;;;;;;;18.39;100.00;97981.72;5013932;28;20056;-57
2022/10/26 02:29:47;;;;;;;41.72;6.47;;;;;;;18.36;100.00;97985.44;5016987;28;20121;-57
2022/10/26 02:32:13;;;;;;;33.38;6.25;;;;;;;17.98;100.00;97977.66;5012763;28;20036;-56
2022/10/26 02:34:43;;;;;;;32.20;5.97;;;;;;;17.74;100.00;97975.78;5015657;28;20030;-57
2022/10/26 02:37:09;;;;;;;42.13;7.07;;;;;;;18.55;100.00;97971.72;5011175;28;20116;-57
2022/10/26 02:39:38;;;;;;;28.17;5.72;;;;;;;17.90;100.00;97965.84;5013616;28;20037;-58
2022/10/26 02:42:08;;;;;;;38.55;6.75;;;;;;;17.99;100.00;97961.69;5015850;28;20917;-58
2022/10/26 02:44:43;;;;;;;33.55;5.57;;;;;;;17.46;100.00;97951.34;5020249;28;20174;-57
2022/10/26 02:47:09;;;;;;;52.53;7.72;;;;;;;17.95;100.00;97947.03;5019249;28;20030;-56
2022/10/26 02:49:35;;;;;;;35.30;6.03;;;;;;;17.94;100.00;97944.50;5018924;28;20114;-57
2022/10/26 02:52:08;;;;;;;39.55;6.55;;;;;;;18.21;100.00;97945.13;5020150;28;20116;-58
2022/10/26 02:54:53;;;;;;;43.03;7.00;;;;;;;17.70;100.00;97959.31;5021025;28;20017;-57
2022/10/26 02:57:28;;;;;;;59.75;7.88;;;;;;;17.91;100.00;97953.50;5021002;28;20034;-57
2022/10/26 02:59:55;;;;;;;31.48;5.72;;;;;;;17.65;100.00;97961.44;5021111;28;20036;-59
2022/10/26 03:02:21;;;;;;;56.20;7.45;;;;;;;17.76;100.00;97954.56;5021636;28;20103;-56
2022/10/26 03:04:49;;;;;;;32.50;6.00;;;;;;;17.95;100.00;97957.59;5021155;28;20025;-56
2022/10/26 03:07:24;;;;;;;47.38;7.50;;;;;;;17.97;100.00;97965.41;5019369;28;20037;-56
2022/10/26 03:09:49;;;;;;;38.45;6.30;;;;;;;18.14;100.00;97980.88;5022665;28;20108;-58
2022/10/26 03:12:15;;;;;;;27.70;5.47;;;;;;;18.13;100.00;97976.53;5017074;28;20113;-60
2022/10/26 03:14:40;;;;;;;33.85;5.95;;;;;;;18.30;100.00;97986.72;5021986;28;20498;-56
2022/10/26 03:17:06;;;;;;;38.85;6.57;;;;;;;18.69;100.00;97974.19;5016900;28;20802;-56
2022/10/26 03:19:31;;;;;;;41.78;6.43;;;;;;;18.15;100.00;97977.28;5016538;28;20037;-59
2022/10/26 03:21:56;;;;;;;31.00;5.30;;;;;;;17.47;100.00;97968.00;5020138;28;20029;-56
2022/10/26 03:24:22;;;;;;;29.88;5.35;;;;;;;17.76;100.00;97979.16;5020157;28;20129;-57
2022/10/26 03:26:47;;;;;;;32.60;5.38;;;;;;;17.15;100.00;97973.72;5018153;28;20095;-57
2022/10/26 03:29:12;;;;;;;34.78;6.32;;;;;;;18.32;100.00;97977.84;5017666;28;20025;-57
2022/10/26 03:31:38;;;;;;;50.17;7.13;;;;;;;18.26;100.00;97969.41;5019924;28;20041;-57
2022/10/26 03:34:03;;;;;;;31.10;6.03;;;;;;;18.46;100.00;97985.59;5019911;28;20068;-56
2022/10/26 03:36:28;;;;;;;35.63;6.00;;;;;;;18.50;100.00;97973.84;5017838;28;20095;-56
2022/10/26 03:38:54;;;;;;;43.25;6.32;;;;;;;18.62;100.00;97977.41;5019628;28;20053;-58
2022/10/26 03:41:19;;;;;;;35.35;5.65;;;;;;;17.60;100.00;97979.38;5019058;28;20079;-56
2022/10/26 03:43:44;;;;;;;39.47;6.47;;;;;;;18.04;100.00;97974.56;5022388;28;20041;-57
2022/10/26 03:46:10;;;;;;;36.47;5.97;;;;;;;18.22;100.00;97975.88;5018257;28;20084;-57
2022/10/26 03:48:35;;;;;;;28.25;5.32;;;;;;;18.46;100.00;97967.13;5016694;28;20032;-57
2022/10/26 03:51:00;;;;;;;38.00;6.20;;;;;;;18.76;100.00;97971.06;5016122;28;20029;-57
2022/10/26 03:53:26;;;;;;;39.17;6.65;;;;;;;18.47;100.00;97971.44;5017967;28;20030;-57
2022/10/26 03:55:51;;;;;;;42.40;6.78;;;;;;;18.38;100.00;97974.75;5019181;28;20045;-57
2022/10/26 03:58:17;;;;;;;33.88;6.20;;;;;;;18.61;100.00;97971.25;5018448;28;20025;-60
2022/10/26 04:00:42;;;;;;;37.40;6.28;;;;;;;18.58;100.00;97962.72;5018416;28;20064;-59
2022/10/26 04:03:08;;;;;;;42.33;7.43;;;;;;;18.87;100.00;97961.41;5017025;28;20079;-58
2022/10/26 04:05:33;;;;;;;33.08;6.75;;;;;;;18.55;100.00;97966.44;5016756;28;20037;-57
2022/10/26 04:08:01;;;;;;;39.20;7.03;;;;;;;18.59;100.00;97967.88;5018049;28;20202;-57
2022/10/26 04:10:27;;;;;;;36.10;6.28;;;;;;;18.34;100.00;97970.66;5018656;28;20045;-59
2022/10/26 04:12:53;;;;;;;32.70;6.60;;;;;;;18.92;100.00;97969.00;5016884;28;20033;-57
2022/10/26 04:15:20;;;;;;;45.70;8.35;;;;;;;18.96;100.00;97972.25;5019980;28;20021;-57
2022/10/26 04:17:45;;;;;;;34.58;6.70;;;;;;;18.82;100.00;97978.56;5019143;28;20103;-59
2022/10/26 04:20:11;;;;;;;39.63;7.20;;;;;;;18.34;100.00;97966.19;5017366;28;20022;-57
2022/10/26 04:22:37;;;;;;;38.38;7.28;;;;;;;18.91;100.00;97967.28;5018876;28;20039;-57
2022/10/26 04:25:04;;;;;;;36.42;7.35;;;;;;;18.69;100.00;97968.91;5022933;28;20021;-57
2022/10/26 04:27:29;;;;;;;40.80;7.00;;;;;;;18.53;100.00;97978.06;5020023;28;20825;-57
2022/10/26 04:29:54;;;;;;;40.38;7.35;;;;;;;18.94;100.00;97980.28;5016517;28;20025;-58
2022/10/26 04:32:20;;;;;;;46.13;7.40;;;;;;;18.97;100.00;97972.13;5020842;28;20029;-58
2022/10/26 04:34:45;;;;;;;35.78;6.88;;;;;;;18.76;100.00;97973.72;5020066;28;20524;-57
2022/10/26 04:37:11;;;;;;;40.80;7.75;;;;;;;18.95;100.00;97979.34;5023827;28;20045;-57
2022/10/26 04:39:36;;;;;;;38.40;7.05;;;;;;;18.90;100.00;97985.94;5021228;28;20032;-58
2022/10/26 04:42:01;;;;;;;34.05;7.60;;;;;;;19.39;100.00;97988.31;5020977;28;20092;-57
2022/10/26 04:44:27;;;;;;;31.33;6.97;;;;;;;17.92;100.00;97979.78;5016383;28;20029;-57
2022/10/26 04:46:52;;;;;;;43.15;8.02;;;;;;;19.22;100.00;97980.81;5018519;28;20034;-57
2022/10/26 04:49:17;;;;;;;32.55;7.20;;;;;;;19.91;100.00;97993.16;5017626;28;20063;-57
2022/10/26 04:51:43;;;;;;;48.65;8.18;;;;;;;19.64;100.00;97997.81;5017539;28;20128;-57
2022/10/26 04:54:08;;;;;;;40.28;7.22;;;;;;;19.68;100.00;97997.59;5016344;28;20535;-58
2022/10/26 04:56:33;;;;;;;47.92;8.23;;;;;;;19.97;100.00;97997.97;5022658;28;20539;-58
2022/10/26 04:58:59;;;;;;;36.58;7.10;;;;;;;18.68;100.00;97992.78;5018604;28;20784;-58
2022/10/26 05:01:24;;;;;;;42.63;7.53;;;;;;;18.72;100.00;97998.69;5014234;28;20037;-58
2022/10/26 05:03:51;;;;;;;41.17;8.05;;;;;;;20.01;100.00;97994.09;5013963;28;20037;-58
2022/10/26 05:06:16;;;;;;;37.45;8.07;;;;;;;19.83;100.00;97994.63;5018134;28;20052;-59
2022/10/26 05:08:41;;;;;;;36.90;8.13;;;;;;;19.90;100.00;98002.88;5016018;28;20030;-59
2022/10/26 05:11:07;;;;;;;32.78;7.63;;;;;;;19.68;100.00;98001.06;5014786;28;20042;-59
2022/10/26 05:13:32;;;;;;;35.50;8.07;;;;;;;19.54;100.00;97999.50;5016436;28;20033;-60
2022/10/26 05:15:57;;;;;;;45.42;8.35;;;;;;;19.43;100.00;97997.69;5013812;28;20034;-58
2022/10/26 05:18:23;;;;;;;46.85;9.05;;;;;;;19.37;100.00;97995.53;5015555;28;20091;-58
2022/10/26 05:20:51;;;;;;;42.60;8.32;;;;;;;19.40;100.00;97989.16;5013915;28;20037;-57
2022/10/26 05:23:17;;;;;;;32.47;7.95;;;;;;;19.57;100.00;97985.19;5016473;28;20017;-58
2022/10/26 05:25:43;;;;;;;32.17;7.28;;;;;;;19.47;100.00;97992.19;5011716;28;20040;-58
2022/10/26 05:28:12;;;;;;;40.47;8.55;;;;;;;20.07;100.00;97988.34;5013464;28;20071;-60
2022/10/26 05:30:38;;;;;;;40.67;8.57;;;;;;;20.01;100.00;97994.09;5018562;28;20130;-59
2022/10/26 05:33:03;;;;;;;46.47;9.00;;;;;;;20.44;100.00;98000.38;5018434;28;20711;-59
2022/10/26 05:35:29;;;;;;;37.55;8.30;;;;;;;20.19;100.00;97997.09;5019537;28;20045;-58
2022/10/26 05:37:55;;;;;;;36.50;8.07;;;;;;;19.10;100.00;97992.34;5021082;28;20026;-58
2022/10/26 05:40:21;;;;;;;48.50;10.07;;;;;;;20.04;100.00;97993.88;5012401;28;20040;-57
2022/10/26 05:42:46;;;;;;;67.75;16.40;;;;;;;19.54;100.00;98002.16;5016470;28;20079;-59
2022/10/26 05:45:12;;;;;;;52.35;10.85;;;;;;;19.59;100.00;97996.50;5016077;28;20075;-60
2022/10/26 05:47:40;;;;;;;55.88;11.93;;;;;;;19.99;100.00;97998.69;5018722;28;20025;-58
2022/10/26 05:50:05;;;;;;;44.65;8.55;;;;;;;19.82;100.00;98000.03;5016376;28;20022;-58
2022/10/26 05:52:38;;;;;;;33.13;7.68;;;;;;;20.22;100.00;98002.16;5015543;28;20040;-59
2022/10/26 05:55:03;;;;;;;33.97;7.82;;;;;;;20.07;100.00;97993.63;5017599;28;20025;-61
2022/10/26 05:57:29;;;;;;;40.50;8.80;;;;;;;19.96;100.00;97998.91;5012397;28;20037;-60
2022/10/26 05:59:55;;;;;;;41.88;8.77;;;;;;;20.06;100.00;97996.41;5015796;28;20022;-58
2022/10/26 06:02:29;;;;;;;45.13;9.60;;;;;;;20.18;100.00;97996.25;5015278;28;20724;-60
2022/10/26 06:05:01;;;;;;;44.63;8.68;;;;;;;19.97;100.00;97998.78;5013390;28;20025;-58
2022/10/26 06:07:26;;;;;;;;;;;;;;;20.04;100.00;98009.75;5014849;28;20098;-61
2022/10/26 06:09:52;;;;;;;43.38;8.98;;;;;;;19.94;100.00;98007.00;5014519;28;19913;-59
2022/10/26 06:12:18;;;;;;;30.45;7.25;;;;;;;18.25;100.00;98007.34;5017151;28;20116;-60
2022/10/26 06:14:43;;;;;;;39.42;8.70;;;;;;;19.58;100.00;98000.13;5016156;28;20053;-59
2022/10/26 06:17:21;;;;;;;42.22;10.25;;;;;;;19.64;100.00;97996.97;5017365;28;20041;-59
2022/10/26 06:20:04;;;;;;;34.72;10.55;;;;;;;20.07;100.00;97998.94;5017641;28;20041;-59
2022/10/26 06:22:35;;;;;;;44.17;10.85;;;;;;;19.52;100.00;98013.81;5017705;28;20511;-60
2022/10/26 06:25:23;;;;;;;39.50;8.93;;;;;;;18.55;100.00;98019.25;5017832;28;20029;-58
2022/10/26 06:28:13;;;;;;;42.53;8.82;;;;;;;18.08;100.00;98011.16;5022572;28;20045;-60
2022/10/26 06:30:42;;;;;;;46.25;9.65;;;;;;;19.38;100.00;98005.13;5023737;28;20040;-58
2022/10/26 06:33:11;;;;;;;29.50;7.80;;;;;;;19.80;100.00;98005.44;5025176;28;20113;-60
2022/10/26 06:35:55;;;;;;;39.42;8.70;;;;;;;19.92;100.00;98006.25;5022549;28;20144;-59
2022/10/26 06:38:22;;;;;;;39.50;8.43;;;;;;;20.69;100.00;98009.84;5017479;28;20034;-61
2022/10/26 06:40:51;;;;;;;53.20;9.38;;;;;;;20.33;100.00;98011.88;5020193;28;20451;-59
2022/10/26 06:43:24;;;;;;;38.10;9.25;;;;;;;20.95;100.00;98013.00;5021575;28;20029;-59
2022/10/26 06:46:32;;;;;;;48.50;9.45;;;;;;;20.84;100.00;98028.94;5019492;28;20121;-59
2022/10/26 06:49:17;;;;;;;53.13;9.05;;;;;;;20.39;100.00;98024.63;5001864;28;20045;-60
2022/10/26 06:52:02;;;;;;;41.63;8.25;;;;;;;19.94;100.00;98028.19;5019094;28;20041;-59
2022/10/26 06:54:48;;;;;;;34.42;7.20;;;;;;;19.75;100.00;98034.06;5020387;28;20153;-60
2022/10/26 06:57:15;;;;;;;45.20;8.40;;;;;;;20.25;100.00;98027.53;5020816;28;20112;-59
2022/10/26 06:59:43;;;;;;;28.83;6.95;;;;;;;20.33;100.00;98030.41;5021815;28;20466;-60
2022/10/26 07:02:10;;;;;;;38.03;7.70;;;;;;;21.17;100.00;98030.59;5022173;28;20045;-59
2022/10/26 07:04:36;;;;;;;32.90;7.05;;;;;;;22.03;100.00;98023.25;5024443;28;20032;-58
2022/10/26 07:07:02;;;;;;;37.35;7.15;;;;;;;21.33;100.00;98030.97;5015018;28;20033;-58
2022/10/26 07:09:27;;;;;;;34.15;6.70;;;;;;;21.31;100.00;98022.31;5019640;28;20028;-59
2022/10/26 07:11:52;;;;;;;32.88;6.68;;;;;;;21.46;100.00;98022.03;5012806;28;20285;-59
2022/10/26 07:14:18;;;;;;;38.10;7.53;;;;;;;21.83;100.00;98018.84;5019032;28;20087;-59
2022/10/26 07:16:43;;;;;;;30.38;6.47;;;;;;;21.87;100.00;98022.91;5022330;28;20061;-59
2022/10/26 07:19:08;;;;;;;32.40;6.88;;;;;;;21.66;100.00;98015.84;5018708;28;20045;-58
2022/10/26 07:21:34;;;;;;;34.45;7.15;;;;;;;22.14;100.00;98019.66;5019509;28;20129;-58
2022/10/26 07:23:59;;;;;;;31.05;6.03;;;;;;;22.61;100.00;98037.72;5016180;28;20076;-58
2022/10/26 07:26:26;;;;;;;37.25;6.90;;;;;;;22.13;100.00;98045.38;5021039;28;20037;-59
2022/10/26 07:28:51;;;;;;;30.48;6.40;;;;;;;22.31;100.00;98055.38;5018270;28;20445;-59
2022/10/26 07:31:17;;;;;;;35.28;7.40;;;;;;;23.46;100.00;98055.59;5017549;28;20577;-60
2022/10/26 07:33:44;;;;;;;34.13;6.80;;;;;;;25.71;100.00;98056.91;5017616;28;20034;-59
2022/10/26 07:36:09;;;;;;;24.65;6.28;;;;;;;24.99;100.00;98060.50;5019284;28;20070;-59
2022/10/26 07:38:36;;;;;;;43.08;6.93;;;;;;;24.32;100.00;98067.13;5017579;28;20104;-59
2022/10/26 07:41:02;;;;;;;31.63;6.60;;;;;;;23.42;100.00;98062.22;5016373;28;20049;-58
2022/10/26 07:43:28;;;;;;;39.97;6.95;;;;;;;24.12;100.00;98071.72;5019522;28;20021;-62
2022/10/26 07:45:53;;;;;;;27.60;6.03;;;;;;;23.38;100.00;98065.28;5017660;28;20038;-59
2022/10/26 07:48:19;;;;;;;30.95;5.55;;;;;;;22.64;100.00;98074.63;5019511;28;20756;-60
2022/10/26 07:50:44;;;;;;;30.52;5.85;;;;;;;23.50;100.00;98077.47;5015938;28;20042;-61
2022/10/26 07:53:10;;;;;;;23.00;5.30;;;;;;;23.34;100.00;98077.19;5017674;28;20662;-60
2022/10/26 07:55:35;;;;;;;36.03;5.93;;;;;;;23.77;100.00;98083.88;5014100;28;20371;-60
2022/10/26 07:58:00;;;;;;;22.75;4.90;;;;;;;22.23;100.00;98071.16;5021405;28;20048;-59
2022/10/26 08:00:27;;;;;;;29.60;5.18;;;;;;;23.02;100.00;98083.63;5017113;28;20045;-60
2022/10/26 08:02:53;;;;;;;32.40;5.68;;;;;;;23.14;100.00;98093.19;5020635;28;20033;-61
2022/10/26 08:05:18;;;;;;;24.10;4.65;;;;;;;22.15;100.00;98093.06;5021102;28;20075;-59
2022/10/26 08:07:44;;;;;;;25.38;4.57;;;;;;;22.45;100.00;98096.69;5019062;28;20083;-59
2022/10/26 08:10:11;;;;;;;21.75;4.20;;;;;;;23.22;100.00;98101.31;5016296;28;20036;-59
2022/10/26 08:12:36;;;;;;;28.60;5.05;;;;;;;23.08;100.00;98104.38;5016355;28;20074;-58
2022/10/26 08:15:02;;;;;;;35.25;5.93;;;;;;;22.39;100.00;98103.41;5019233;28;20025;-62
2022/10/26 08:17:28;;;;;;;26.75;4.75;;;;;;;22.93;100.00;98105.75;5024100;28;20045;-60
2022/10/26 08:19:54;;;;;;;36.80;5.63;;;;;;;22.35;100.00;98117.94;5021593;28;20043;-60
2022/10/26 08:22:19;;;;;;;28.83;5.25;;;;;;;21.75;100.00;98105.31;5020056;28;20037;-58
2022/10/26 08:24:45;;;;;;;17.25;4.57;;;;;;;23.36;100.00;98107.19;5021916;28;20065;-58
2022/10/26 08:27:13;;;;;;;37.25;6.15;;;;;;;23.16;100.00;98106.34;5016836;28;20072;-58
2022/10/26 08:29:38;;;;;;;18.30;4.30;;;;;;;22.14;100.00;98100.19;5020553;28;20033;-60
2022/10/26 08:32:04;;;;;;;30.83;5.07;;;;;;;23.10;100.00;98107.72;5018533;28;20034;-58
2022/10/26 08:34:29;;;;;;;38.47;5.38;;;;;;;22.70;100.00;98104.19;5022960;28;20078;-58
2022/10/26 08:36:55;;;;;;;26.83;4.93;;;;;;;22.52;100.00;98105.81;5019632;28;20124;-59
2022/10/26 08:39:20;;;;;;;29.23;5.63;;;;;;;22.73;100.00;98100.38;5017532;28;20551;-58
2022/10/26 08:41:51;;;;;;;29.13;5.15;;;;;;;23.25;100.00;98110.81;5020329;28;20591;-61
2022/10/26 08:44:26;;;;;;;31.20;5.38;;;;;;;23.57;100.00;98101.69;5017245;28;20120;-60
2022/10/26 08:47:05;;;;;;;55.80;6.25;;;;;;;23.14;100.00;98108.28;5018777;28;20152;-59
2022/10/26 08:50:01;;;;;;;48.33;5.93;;;;;;;24.16;100.00;98110.41;5016020;28;20029;-58
2022/10/26 08:52:52;;;;;;;32.42;5.50;;;;;;;23.38;100.00;98110.53;5012796;28;20038;-58
2022/10/26 08:55:24;;;;;;;27.08;4.72;;;;;;;23.92;100.00;98116.22;5017587;28;20583;-58
2022/10/26 08:57:52;;;;;;;24.85;4.13;;;;;;;23.66;100.00;98120.31;5018878;28;20404;-59
2022/10/26 09:00:23;;;;;;;26.35;4.47;;;;;;;24.11;100.00;98121.47;5018077;28;20103;-59
2022/10/26 09:02:52;;;;;;;26.47;4.80;;;;;;;24.22;100.00;98121.31;5018785;28;20021;-59
2022/10/26 09:05:26;;;;;;;24.65;4.10;;;;;;;24.26;100.00;98121.84;5018808;28;21031;-58
2022/10/26 09:08:04;;;;;;;26.25;4.90;;;;;;;23.88;100.00;98117.50;5017026;28;20086;-58
2022/10/26 09:10:40;;;;;;;30.30;5.07;;;;;;;22.49;100.00;98114.88;5022151;28;20041;-58
2022/10/26 09:13:27;;;;;;;22.95;4.10;;;;;;;23.92;100.00;98121.56;5015513;28;20121;-58
2022/10/26 09:16:12;;;;;;;27.00;5.07;;;;;;;23.15;100.00;98110.81;5018343;28;20038;-58
2022/10/26 09:19:19;;;;;;;30.98;5.15;;;;;;;23.79;100.00;98113.84;5018273;28;20021;-58
2022/10/26 09:21:57;;;;;;;30.27;4.72;;;;;;;23.93;100.00;98126.75;5023078;28;20160;-58
2022/10/26 09:24:32;;;;;;;26.70;4.60;;;;;;;24.84;100.00;98130.56;5020045;28;20495;-58
2022/10/26 09:27:23;;;;;;;27.45;4.60;;;;;;;23.32;100.00;98127.91;5021283;28;20952;-58
2022/10/26 09:29:50;;;;;;;30.25;5.57;;;;;;;24.86;100.00;98124.09;5015179;28;20033;-59
2022/10/26 09:32:22;;;;;;;27.45;4.28;;;;;;;24.59;100.00;98132.94;5018585;28;20039;-59
2022/10/26 09:34:51;;;;;;;29.92;4.88;;;;;;;23.96;100.00;98130.94;5019045;28;20103;-58
2022/10/26 09:37:22;;;;;;;28.85;4.43;;;;;;;25.14;100.00;98132.88;5008624;28;20163;-59
2022/10/26 09:40:17;;;;;;;30.83;4.90;;;;;;;25.00;100.00;98130.75;5014705;28;20041;-59
2022/10/26 09:42:50;;;;;;;25.52;4.32;;;;;;;24.02;100.00;98139.19;5019979;28;20498;-59
2022/10/26 09:45:24;;;;;;;24.00;4.22;;;;;;;23.59;100.00;98140.50;5015259;28;20033;-59
2022/10/26 09:47:52;;;;;;;26.75;4.88;;;;;;;25.28;100.00;98138.72;5014597;28;20026;-58
2022/10/26 09:50:32;;;;;;;30.65;5.13;;;;;;;25.36;100.00;98146.78;5018271;28;20108;-58
2022/10/26 09:52:58;;;;;;;26.27;4.80;;;;;;;25.70;100.00;98148.75;5018657;28;20541;-61
2022/10/26 09:55:23;;;;;;;26.60;5.00;;;;;;;26.46;100.00;98149.91;5016917;28;20108;-61
2022/10/26 09:57:55;;;;;;;23.05;4.75;;;;;;;25.96;100.00;98154.97;5016304;28;20022;-59
2022/10/26 10:00:22;;;;;;;28.08;4.93;;;;;;;25.41;100.00;98157.03;5013215;28;20022;-60
2022/10/26 10:02:56;;;;;;;19.98;4.10;;;;;;;25.46;100.00;98152.91;5015144;28;20055;-58
2022/10/26 10:05:33;;;;;;;25.35;4.72;;;;;;;26.22;100.00;98156.81;5013531;28;20032;-58
2022/10/26 10:08:26;;;;;;;26.02;4.60;;;;;;;26.66;100.00;98162.06;5015206;28;20621;-61
2022/10/26 10:11:08;;;;;;;28.42;4.53;;;;;;;26.39;100.00;98164.91;5013277;28;20092;-58
2022/10/26 10:13:44;;;;;;;;;;;;;;;25.44;100.00;98167.38;5018893;28;20148;-61
2022/10/26 10:16:20;;;;;;;23.25;4.35;;;;;;;25.86;100.00;98167.59;5018503;28;19966;-59
2022/10/26 10:18:58;;;;;;;27.13;4.57;;;;;;;25.78;100.00;98167.50;5017133;28;20040;-61
2022/10/26 10:21:32;;;;;;;24.60;4.30;;;;;;;25.35;100.00;98171.81;5015302;28;20048;-58
2022/10/26 10:23:58;;;;;;;27.58;4.65;;;;;;;25.21;100.00;98175.81;5014994;28;20026;-59
2022/10/26 10:26:23;;;;;;;28.83;5.03;;;;;;;25.14;100.00;98175.56;5013104;28;20033;-58
2022/10/26 10:29:00;;;;;;;19.42;3.80;;;;;;;24.81;100.00;98169.91;5015933;28;20032;-60
2022/10/26 10:31:28;;;;;;;26.08;4.68;;;;;;;25.08;100.00;98178.84;5014478;28;20140;-63
2022/10/26 10:33:54;;;;;;;29.33;4.70;;;;;;;24.42;100.00;98174.53;5011849;28;20037;-58
2022/10/26 10:36:22;;;;;;;22.25;4.32;;;;;;;25.46;100.00;98178.78;5017387;28;20048;-58
2022/10/26 10:38:50;;;;;;;25.02;4.38;;;;;;;25.72;100.00;98176.16;5018827;28;20084;-60
2022/10/26 10:41:18;;;;;;;24.73;4.38;;;;;;;26.03;100.00;98176.56;5030013;28;20037;-60
2022/10/26 10:43:50;;;;;;;26.20;4.60;;;;;;;25.33;100.00;98173.81;5017119;28;20022;-60
2022/10/26 10:46:25;;;;;;;25.00;4.43;;;;;;;26.35;99.82;98186.59;5021755;28;20383;-58
2022/10/26 10:49:19;;;;;;;23.63;4.30;;;;;;;25.87;99.80;98190.63;5018309;28;20033;-59
2022/10/26 10:51:44;;;;;;;25.80;4.35;;;;;;;25.42;100.00;98183.56;5009135;28;20045;-60
2022/10/26 10:54:28;;;;;;;28.40;4.13;;;;;;;25.57;100.00;98187.38;5017760;28;20067;-62
2022/10/26 10:57:22;;;;;;;31.08;5.28;;;;;;;26.29;97.03;98191.78;5016033;28;20602;-58
2022/10/26 11:00:15;;;;;;;23.83;4.63;;;;;;;25.27;100.00;98190.41;5013017;28;20021;-60
2022/10/26 11:03:15;;;;;;;24.45;4.25;;;;;;;24.95;100.00;98186.38;5011326;28;20059;-60
2022/10/26 11:06:05;;;;;;;24.02;4.05;;;;;;;25.62;99.40;98186.06;5018327;28;20040;-59
2022/10/26 11:08:43;;;;;;;25.08;4.53;;;;;;;25.47;99.84;98181.25;5022717;28;20029;-58
2022/10/26 11:11:15;;;;;;;26.73;4.47;;;;;;;26.02;97.99;98177.56;5020906;28;20416;-62
2022/10/26 11:14:18;;;;;;;22.23;4.07;;;;;;;25.32;100.00;98190.81;5016933;28;20040;-60
2022/10/26 11:17:21;;;;;;;22.05;4.20;;;;;;;25.08;100.00;98189.53;5023230;28;20162;-59
2022/10/26 11:19:53;;;;;;;20.33;3.90;;;;;;;26.02;100.00;98201.63;5017662;28;20125;-60
2022/10/26 11:22:27;;;;;;;28.17;4.15;;;;;;;26.36;100.00;98198.16;5011782;28;20574;-59
2022/10/26 11:24:56;;;;;;;17.65;3.67;;;;;;;26.41;100.00;98200.34;5014429;28;20059;-62
2022/10/26 11:27:51;;;;;;;23.60;3.92;;;;;;;26.49;100.00;98195.88;5014504;28;20286;-61
2022/10/26 11:30:19;;;;;;;27.65;4.75;;;;;;;26.40;100.00;98201.38;5020079;28;20121;-59
2022/10/26 11:32:52;;;;;;;27.52;4.43;;;;;;;26.47;100.00;98199.75;5021564;28;20041;-60